sensor_id;sensor_type;location;lat;lon;timestamp;P1;durP1;ratioP1;P2;durP2;ratioP2
74320;SDS011;62738;45.772;4.804;2023-05-07T00:00:18;5.00;;;2.80;;
74320;SDS011;62738;45.772;4.804;2023-05-07T00:02:45;5.47;;;2.78;;
74320;SDS011;62738;45.772;4.804;2023-05-07T00:05:12;5.57;;;2.75;;
74320;SDS011;62738;45.772;4.804;2023-05-07T00:07:40;4.50;;;3.13;;
74320;SDS011;62738;45.772;4.804;2023-05-07T00:10:07;5.03;;;3.15;;
74320;SDS011;62738;45.772;4.804;2023-05-07T00:12:34;4.18;;;2.63;;
74320;SDS011;62738;45.772;4.804;2023-05-07T00:15:02;5.15;;;2.80;;
74320;SDS011;62738;45.772;4.804;2023-05-07T00:17:29;4.10;;;2.55;;
74320;SDS011;62738;45.772;4.804;2023-05-07T00:19:56;5.75;;;2.80;;
74320;SDS011;62738;45.772;4.804;2023-05-07T00:22:23;4.82;;;2.65;;
74320;SDS011;62738;45.772;4.804;2023-05-07T00:24:50;5.72;;;2.55;;
74320;SDS011;62738;45.772;4.804;2023-05-07T00:27:16;4.70;;;2.70;;
74320;SDS011;62738;45.772;4.804;2023-05-07T00:29:43;5.10;;;2.85;;
74320;SDS011;62738;45.772;4.804;2023-05-07T00:32:09;5.45;;;2.90;;
74320;SDS011;62738;45.772;4.804;2023-05-07T00:34:36;5.10;;;2.80;;
74320;SDS011;62738;45.772;4.804;2023-05-07T00:37:03;4.50;;;2.53;;
74320;SDS011;62738;45.772;4.804;2023-05-07T00:39:32;5.90;;;2.97;;
74320;SDS011;62738;45.772;4.804;2023-05-07T00:41:58;3.90;;;2.60;;
74320;SDS011;62738;45.772;4.804;2023-05-07T00:44:26;5.57;;;3.00;;
74320;SDS011;62738;45.772;4.804;2023-05-07T00:46:54;4.47;;;2.72;;
74320;SDS011;62738;45.772;4.804;2023-05-07T00:49:24;6.18;;;3.05;;
74320;SDS011;62738;45.772;4.804;2023-05-07T00:52:01;3.58;;;2.65;;
74320;SDS011;62738;45.772;4.804;2023-05-07T00:54:28;5.50;;;3.38;;
74320;SDS011;62738;45.772;4.804;2023-05-07T00:56:55;4.75;;;2.75;;
74320;SDS011;62738;45.772;4.804;2023-05-07T00:59:22;4.95;;;2.70;;
74320;SDS011;62738;45.772;4.804;2023-05-07T01:04:27;5.68;;;3.00;;
74320;SDS011;62738;45.772;4.804;2023-05-07T01:06:55;6.35;;;2.80;;
74320;SDS011;62738;45.772;4.804;2023-05-07T01:09:24;5.28;;;2.85;;
74320;SDS011;62738;45.772;4.804;2023-05-07T01:11:51;4.88;;;2.60;;
74320;SDS011;62738;45.772;4.804;2023-05-07T01:14:18;6.57;;;2.80;;
74320;SDS011;62738;45.772;4.804;2023-05-07T01:16:47;3.50;;;2.80;;
74320;SDS011;62738;45.772;4.804;2023-05-07T01:19:14;4.70;;;2.72;;
74320;SDS011;62738;45.772;4.804;2023-05-07T01:21:44;3.88;;;2.75;;
74320;SDS011;62738;45.772;4.804;2023-05-07T01:24:13;9.15;;;2.90;;
74320;SDS011;62738;45.772;4.804;2023-05-07T01:26:41;4.65;;;2.78;;
74320;SDS011;62738;45.772;4.804;2023-05-07T01:29:08;6.15;;;2.70;;
74320;SDS011;62738;45.772;4.804;2023-05-07T01:31:36;6.10;;;2.90;;
74320;SDS011;62738;45.772;4.804;2023-05-07T01:34:04;5.60;;;3.28;;
74320;SDS011;62738;45.772;4.804;2023-05-07T01:36:33;3.50;;;2.50;;
74320;SDS011;62738;45.772;4.804;2023-05-07T01:39:00;5.60;;;2.88;;
74320;SDS011;62738;45.772;4.804;2023-05-07T01:41:28;4.45;;;2.80;;
74320;SDS011;62738;45.772;4.804;2023-05-07T01:43:55;3.08;;;2.35;;
74320;SDS011;62738;45.772;4.804;2023-05-07T01:46:23;3.38;;;2.30;;
74320;SDS011;62738;45.772;4.804;2023-05-07T01:48:51;4.18;;;2.30;;
74320;SDS011;62738;45.772;4.804;2023-05-07T01:51:20;6.03;;;2.33;;
74320;SDS011;62738;45.772;4.804;2023-05-07T01:53:48;4.28;;;2.50;;
74320;SDS011;62738;45.772;4.804;2023-05-07T01:56:17;4.45;;;2.38;;
74320;SDS011;62738;45.772;4.804;2023-05-07T01:58:44;3.97;;;2.58;;
74320;SDS011;62738;45.772;4.804;2023-05-07T02:01:13;4.18;;;2.33;;
74320;SDS011;62738;45.772;4.804;2023-05-07T02:03:40;4.45;;;2.17;;
74320;SDS011;62738;45.772;4.804;2023-05-07T02:06:07;3.28;;;2.00;;
74320;SDS011;62738;45.772;4.804;2023-05-07T02:08:34;4.45;;;2.17;;
74320;SDS011;62738;45.772;4.804;2023-05-07T02:11:01;3.33;;;2.10;;
74320;SDS011;62738;45.772;4.804;2023-05-07T02:13:29;3.05;;;2.05;;
74320;SDS011;62738;45.772;4.804;2023-05-07T02:15:57;5.82;;;1.98;;
74320;SDS011;62738;45.772;4.804;2023-05-07T02:18:23;3.92;;;1.65;;
74320;SDS011;62738;45.772;4.804;2023-05-07T02:20:50;3.75;;;1.75;;
74320;SDS011;62738;45.772;4.804;2023-05-07T02:23:17;4.55;;;1.95;;
74320;SDS011;62738;45.772;4.804;2023-05-07T02:25:43;4.72;;;2.03;;
74320;SDS011;62738;45.772;4.804;2023-05-07T02:28:10;3.85;;;1.70;;
74320;SDS011;62738;45.772;4.804;2023-05-07T02:30:37;2.85;;;1.95;;
74320;SDS011;62738;45.772;4.804;2023-05-07T02:33:04;4.20;;;1.80;;
74320;SDS011;62738;45.772;4.804;2023-05-07T02:35:31;5.18;;;1.83;;
74320;SDS011;62738;45.772;4.804;2023-05-07T02:37:58;2.83;;;1.85;;
74320;SDS011;62738;45.772;4.804;2023-05-07T02:40:24;2.60;;;1.88;;
74320;SDS011;62738;45.772;4.804;2023-05-07T02:42:51;4.10;;;2.00;;
74320;SDS011;62738;45.772;4.804;2023-05-07T02:45:18;3.20;;;1.95;;
74320;SDS011;62738;45.772;4.804;2023-05-07T02:47:44;3.20;;;2.08;;
74320;SDS011;62738;45.772;4.804;2023-05-07T02:50:11;5.85;;;2.10;;
74320;SDS011;62738;45.772;4.804;2023-05-07T02:52:38;3.75;;;2.03;;
74320;SDS011;62738;45.772;4.804;2023-05-07T02:55:05;3.40;;;2.10;;
74320;SDS011;62738;45.772;4.804;2023-05-07T02:57:32;4.60;;;2.10;;
74320;SDS011;62738;45.772;4.804;2023-05-07T02:59:59;4.35;;;2.30;;
74320;SDS011;62738;45.772;4.804;2023-05-07T03:02:25;5.47;;;2.10;;
74320;SDS011;62738;45.772;4.804;2023-05-07T03:04:52;3.70;;;1.98;;
74320;SDS011;62738;45.772;4.804;2023-05-07T03:07:19;4.13;;;1.98;;
74320;SDS011;62738;45.772;4.804;2023-05-07T03:09:46;3.80;;;2.33;;
74320;SDS011;62738;45.772;4.804;2023-05-07T03:12:13;3.30;;;2.15;;
74320;SDS011;62738;45.772;4.804;2023-05-07T03:14:39;3.63;;;2.30;;
74320;SDS011;62738;45.772;4.804;2023-05-07T03:17:06;5.43;;;2.28;;
74320;SDS011;62738;45.772;4.804;2023-05-07T03:19:33;5.10;;;2.15;;
74320;SDS011;62738;45.772;4.804;2023-05-07T03:21:59;5.43;;;2.28;;
74320;SDS011;62738;45.772;4.804;2023-05-07T03:24:26;3.95;;;2.25;;
74320;SDS011;62738;45.772;4.804;2023-05-07T03:26:53;3.85;;;2.60;;
74320;SDS011;62738;45.772;4.804;2023-05-07T03:29:19;3.08;;;1.80;;
74320;SDS011;62738;45.772;4.804;2023-05-07T03:31:46;3.40;;;2.00;;
74320;SDS011;62738;45.772;4.804;2023-05-07T03:34:13;7.13;;;2.30;;
74320;SDS011;62738;45.772;4.804;2023-05-07T03:36:39;3.42;;;1.95;;
74320;SDS011;62738;45.772;4.804;2023-05-07T03:39:06;3.50;;;2.40;;
74320;SDS011;62738;45.772;4.804;2023-05-07T03:41:33;3.10;;;2.40;;
74320;SDS011;62738;45.772;4.804;2023-05-07T03:43:59;3.70;;;2.08;;
74320;SDS011;62738;45.772;4.804;2023-05-07T03:46:26;4.20;;;2.63;;
74320;SDS011;62738;45.772;4.804;2023-05-07T03:48:54;4.07;;;2.47;;
74320;SDS011;62738;45.772;4.804;2023-05-07T03:51:21;3.28;;;2.55;;
74320;SDS011;62738;45.772;4.804;2023-05-07T03:53:47;4.90;;;2.50;;
74320;SDS011;62738;45.772;4.804;2023-05-07T03:56:14;5.07;;;2.60;;
74320;SDS011;62738;45.772;4.804;2023-05-07T03:58:44;5.05;;;2.63;;
74320;SDS011;62738;45.772;4.804;2023-05-07T04:01:11;3.58;;;2.33;;
74320;SDS011;62738;45.772;4.804;2023-05-07T04:03:38;4.65;;;2.63;;
74320;SDS011;62738;45.772;4.804;2023-05-07T04:06:05;4.43;;;2.55;;
74320;SDS011;62738;45.772;4.804;2023-05-07T04:08:31;3.90;;;2.42;;
74320;SDS011;62738;45.772;4.804;2023-05-07T04:10:58;4.15;;;2.47;;
74320;SDS011;62738;45.772;4.804;2023-05-07T04:13:26;3.95;;;2.53;;
74320;SDS011;62738;45.772;4.804;2023-05-07T04:15:54;4.63;;;2.40;;
74320;SDS011;62738;45.772;4.804;2023-05-07T04:18:21;4.53;;;2.70;;
74320;SDS011;62738;45.772;4.804;2023-05-07T04:20:48;5.10;;;2.55;;
74320;SDS011;62738;45.772;4.804;2023-05-07T04:23:18;3.88;;;2.55;;
74320;SDS011;62738;45.772;4.804;2023-05-07T04:25:44;5.50;;;2.28;;
74320;SDS011;62738;45.772;4.804;2023-05-07T04:28:11;4.75;;;2.30;;
74320;SDS011;62738;45.772;4.804;2023-05-07T04:30:38;5.18;;;2.20;;
74320;SDS011;62738;45.772;4.804;2023-05-07T04:33:05;3.58;;;2.20;;
74320;SDS011;62738;45.772;4.804;2023-05-07T04:35:33;3.83;;;2.35;;
74320;SDS011;62738;45.772;4.804;2023-05-07T04:37:59;4.07;;;2.08;;
74320;SDS011;62738;45.772;4.804;2023-05-07T04:40:26;3.47;;;2.30;;
74320;SDS011;62738;45.772;4.804;2023-05-07T04:42:53;3.38;;;1.90;;
74320;SDS011;62738;45.772;4.804;2023-05-07T04:45:19;4.20;;;2.40;;
74320;SDS011;62738;45.772;4.804;2023-05-07T04:47:47;4.05;;;2.20;;
74320;SDS011;62738;45.772;4.804;2023-05-07T04:50:14;3.45;;;2.20;;
74320;SDS011;62738;45.772;4.804;2023-05-07T04:52:40;4.22;;;2.20;;
74320;SDS011;62738;45.772;4.804;2023-05-07T04:55:07;5.95;;;2.75;;
74320;SDS011;62738;45.772;4.804;2023-05-07T04:57:34;5.47;;;2.88;;
74320;SDS011;62738;45.772;4.804;2023-05-07T05:00:00;4.63;;;2.30;;
74320;SDS011;62738;45.772;4.804;2023-05-07T05:02:27;5.82;;;2.47;;
74320;SDS011;62738;45.772;4.804;2023-05-07T05:04:54;3.58;;;2.40;;
74320;SDS011;62738;45.772;4.804;2023-05-07T05:07:20;3.90;;;2.53;;
74320;SDS011;62738;45.772;4.804;2023-05-07T05:09:47;5.05;;;2.80;;
74320;SDS011;62738;45.772;4.804;2023-05-07T05:12:14;8.23;;;2.80;;
74320;SDS011;62738;45.772;4.804;2023-05-07T05:14:40;5.53;;;2.40;;
74320;SDS011;62738;45.772;4.804;2023-05-07T05:17:07;4.90;;;2.30;;
74320;SDS011;62738;45.772;4.804;2023-05-07T05:19:33;8.32;;;2.65;;
74320;SDS011;62738;45.772;4.804;2023-05-07T05:22:00;3.80;;;2.50;;
74320;SDS011;62738;45.772;4.804;2023-05-07T05:24:30;3.53;;;2.50;;
74320;SDS011;62738;45.772;4.804;2023-05-07T05:26:57;4.78;;;2.40;;
74320;SDS011;62738;45.772;4.804;2023-05-07T05:29:26;3.78;;;2.78;;
74320;SDS011;62738;45.772;4.804;2023-05-07T05:31:52;5.15;;;2.47;;
74320;SDS011;62738;45.772;4.804;2023-05-07T05:34:19;3.17;;;2.00;;
74320;SDS011;62738;45.772;4.804;2023-05-07T05:36:46;3.72;;;2.50;;
74320;SDS011;62738;45.772;4.804;2023-05-07T05:39:12;5.65;;;2.83;;
74320;SDS011;62738;45.772;4.804;2023-05-07T05:41:40;5.13;;;2.30;;
74320;SDS011;62738;45.772;4.804;2023-05-07T05:44:06;3.00;;;2.30;;
74320;SDS011;62738;45.772;4.804;2023-05-07T05:46:33;4.22;;;2.75;;
74320;SDS011;62738;45.772;4.804;2023-05-07T05:49:02;3.85;;;3.05;;
74320;SDS011;62738;45.772;4.804;2023-05-07T05:51:29;7.30;;;3.25;;
74320;SDS011;62738;45.772;4.804;2023-05-07T05:53:55;4.90;;;3.05;;
74320;SDS011;62738;45.772;4.804;2023-05-07T05:56:22;5.40;;;2.90;;
74320;SDS011;62738;45.772;4.804;2023-05-07T05:58:48;3.33;;;2.38;;
74320;SDS011;62738;45.772;4.804;2023-05-07T06:01:15;4.05;;;2.60;;
74320;SDS011;62738;45.772;4.804;2023-05-07T06:03:43;5.38;;;2.90;;
74320;SDS011;62738;45.772;4.804;2023-05-07T06:06:10;3.75;;;2.70;;
74320;SDS011;62738;45.772;4.804;2023-05-07T06:08:37;5.20;;;2.63;;
74320;SDS011;62738;45.772;4.804;2023-05-07T06:11:03;3.45;;;2.78;;
74320;SDS011;62738;45.772;4.804;2023-05-07T06:13:30;5.00;;;2.40;;
74320;SDS011;62738;45.772;4.804;2023-05-07T06:15:57;4.45;;;2.72;;
74320;SDS011;62738;45.772;4.804;2023-05-07T06:18:23;5.88;;;2.83;;
74320;SDS011;62738;45.772;4.804;2023-05-07T06:20:51;4.47;;;2.83;;
74320;SDS011;62738;45.772;4.804;2023-05-07T06:23:18;3.67;;;2.67;;
74320;SDS011;62738;45.772;4.804;2023-05-07T06:25:50;3.97;;;2.35;;
74320;SDS011;62738;45.772;4.804;2023-05-07T06:28:17;5.50;;;2.22;;
74320;SDS011;62738;45.772;4.804;2023-05-07T06:30:44;4.28;;;2.35;;
74320;SDS011;62738;45.772;4.804;2023-05-07T06:33:11;8.70;;;2.72;;
74320;SDS011;62738;45.772;4.804;2023-05-07T06:35:38;4.18;;;2.53;;
74320;SDS011;62738;45.772;4.804;2023-05-07T06:38:04;3.65;;;2.60;;
74320;SDS011;62738;45.772;4.804;2023-05-07T06:40:31;4.72;;;2.28;;
74320;SDS011;62738;45.772;4.804;2023-05-07T06:42:57;4.70;;;2.47;;
74320;SDS011;62738;45.772;4.804;2023-05-07T06:45:24;3.90;;;2.95;;
74320;SDS011;62738;45.772;4.804;2023-05-07T06:47:51;5.88;;;2.60;;
74320;SDS011;62738;45.772;4.804;2023-05-07T06:50:18;6.53;;;2.90;;
74320;SDS011;62738;45.772;4.804;2023-05-07T06:52:44;6.45;;;2.65;;
74320;SDS011;62738;45.772;4.804;2023-05-07T06:55:11;4.15;;;2.60;;
74320;SDS011;62738;45.772;4.804;2023-05-07T06:57:38;4.65;;;2.42;;
74320;SDS011;62738;45.772;4.804;2023-05-07T07:00:05;4.05;;;2.13;;
74320;SDS011;62738;45.772;4.804;2023-05-07T07:02:36;3.97;;;1.95;;
74320;SDS011;62738;45.772;4.804;2023-05-07T07:05:03;4.22;;;2.00;;
74320;SDS011;62738;45.772;4.804;2023-05-07T07:07:30;3.25;;;1.90;;
74320;SDS011;62738;45.772;4.804;2023-05-07T07:09:56;5.32;;;1.77;;
74320;SDS011;62738;45.772;4.804;2023-05-07T07:12:23;3.85;;;1.83;;
74320;SDS011;62738;45.772;4.804;2023-05-07T07:14:52;2.47;;;1.77;;
74320;SDS011;62738;45.772;4.804;2023-05-07T07:17:20;3.88;;;1.55;;
74320;SDS011;62738;45.772;4.804;2023-05-07T07:19:47;2.92;;;1.77;;
74320;SDS011;62738;45.772;4.804;2023-05-07T07:22:13;3.90;;;1.55;;
74320;SDS011;62738;45.772;4.804;2023-05-07T07:24:43;2.40;;;1.63;;
74320;SDS011;62738;45.772;4.804;2023-05-07T07:27:09;6.07;;;1.70;;
74320;SDS011;62738;45.772;4.804;2023-05-07T07:29:36;3.03;;;1.65;;
74320;SDS011;62738;45.772;4.804;2023-05-07T07:32:03;4.13;;;1.70;;
74320;SDS011;62738;45.772;4.804;2023-05-07T07:34:29;3.97;;;1.70;;
74320;SDS011;62738;45.772;4.804;2023-05-07T07:36:56;4.10;;;1.70;;
74320;SDS011;62738;45.772;4.804;2023-05-07T07:39:23;3.60;;;1.90;;
74320;SDS011;62738;45.772;4.804;2023-05-07T07:41:49;2.60;;;1.55;;
74320;SDS011;62738;45.772;4.804;2023-05-07T07:44:16;4.00;;;1.70;;
74320;SDS011;62738;45.772;4.804;2023-05-07T07:46:43;4.22;;;1.60;;
74320;SDS011;62738;45.772;4.804;2023-05-07T07:49:10;4.88;;;1.60;;
74320;SDS011;62738;45.772;4.804;2023-05-07T07:51:36;2.70;;;1.45;;
74320;SDS011;62738;45.772;4.804;2023-05-07T07:54:03;2.97;;;1.30;;
74320;SDS011;62738;45.772;4.804;2023-05-07T07:56:31;4.85;;;1.50;;
74320;SDS011;62738;45.772;4.804;2023-05-07T07:58:59;3.08;;;1.30;;
74320;SDS011;62738;45.772;4.804;2023-05-07T08:01:26;5.85;;;1.60;;
74320;SDS011;62738;45.772;4.804;2023-05-07T08:03:54;4.03;;;1.50;;
74320;SDS011;62738;45.772;4.804;2023-05-07T08:06:21;2.83;;;1.42;;
74320;SDS011;62738;45.772;4.804;2023-05-07T08:08:48;4.70;;;1.45;;
74320;SDS011;62738;45.772;4.804;2023-05-07T08:11:14;4.70;;;1.52;;
74320;SDS011;62738;45.772;4.804;2023-05-07T08:13:41;2.50;;;1.33;;
74320;SDS011;62738;45.772;4.804;2023-05-07T08:16:07;8.95;;;2.00;;
74320;SDS011;62738;45.772;4.804;2023-05-07T08:18:34;2.85;;;1.50;;
74320;SDS011;62738;45.772;4.804;2023-05-07T08:21:01;3.22;;;1.50;;
74320;SDS011;62738;45.772;4.804;2023-05-07T08:23:27;2.45;;;1.30;;
74320;SDS011;62738;45.772;4.804;2023-05-07T08:25:54;4.43;;;1.80;;
74320;SDS011;62738;45.772;4.804;2023-05-07T08:28:21;5.63;;;2.00;;
74320;SDS011;62738;45.772;4.804;2023-05-07T08:30:47;5.93;;;1.80;;
74320;SDS011;62738;45.772;4.804;2023-05-07T08:33:14;2.35;;;1.50;;
74320;SDS011;62738;45.772;4.804;2023-05-07T08:35:41;4.32;;;1.42;;
74320;SDS011;62738;45.772;4.804;2023-05-07T08:38:07;4.32;;;1.65;;
74320;SDS011;62738;45.772;4.804;2023-05-07T08:40:38;2.55;;;1.40;;
74320;SDS011;62738;45.772;4.804;2023-05-07T08:43:05;2.00;;;1.30;;
74320;SDS011;62738;45.772;4.804;2023-05-07T08:45:33;2.67;;;1.48;;
74320;SDS011;62738;45.772;4.804;2023-05-07T08:48:05;2.60;;;1.60;;
74320;SDS011;62738;45.772;4.804;2023-05-07T09:18:59;3.78;;;1.38;;
74320;SDS011;62738;45.772;4.804;2023-05-07T09:21:28;2.42;;;1.40;;
74320;SDS011;62738;45.772;4.804;2023-05-07T09:23:56;2.33;;;1.23;;
74320;SDS011;62738;45.772;4.804;2023-05-07T09:26:22;3.08;;;1.10;;
74320;SDS011;62738;45.772;4.804;2023-05-07T09:28:50;2.10;;;1.30;;
74320;SDS011;62738;45.772;4.804;2023-05-07T09:31:17;2.70;;;1.23;;
74320;SDS011;62738;45.772;4.804;2023-05-07T09:33:46;6.15;;;1.40;;
74320;SDS011;62738;45.772;4.804;2023-05-07T09:36:13;3.65;;;1.20;;
74320;SDS011;62738;45.772;4.804;2023-05-07T09:38:40;1.70;;;0.93;;
74320;SDS011;62738;45.772;4.804;2023-05-07T09:41:10;2.40;;;1.30;;
74320;SDS011;62738;45.772;4.804;2023-05-07T09:43:39;1.33;;;0.77;;
74320;SDS011;62738;45.772;4.804;2023-05-07T09:46:07;2.38;;;1.17;;
74320;SDS011;62738;45.772;4.804;2023-05-07T09:48:39;2.63;;;1.02;;
74320;SDS011;62738;45.772;4.804;2023-05-07T09:51:24;4.20;;;1.20;;
74320;SDS011;62738;45.772;4.804;2023-05-07T09:53:53;2.30;;;1.23;;
74320;SDS011;62738;45.772;4.804;2023-05-07T09:56:20;5.90;;;1.25;;
74320;SDS011;62738;45.772;4.804;2023-05-07T09:58:47;2.53;;;1.20;;
74320;SDS011;62738;45.772;4.804;2023-05-07T10:01:15;2.70;;;1.50;;
74320;SDS011;62738;45.772;4.804;2023-05-07T10:03:45;1.95;;;1.17;;
74320;SDS011;62738;45.772;4.804;2023-05-07T10:06:13;3.22;;;1.13;;
74320;SDS011;62738;45.772;4.804;2023-05-07T10:08:41;2.30;;;1.00;;
74320;SDS011;62738;45.772;4.804;2023-05-07T10:11:09;3.67;;;1.20;;
74320;SDS011;62738;45.772;4.804;2023-05-07T10:13:36;5.43;;;1.25;;
74320;SDS011;62738;45.772;4.804;2023-05-07T10:16:04;2.53;;;1.50;;
74320;SDS011;62738;45.772;4.804;2023-05-07T10:18:32;2.83;;;1.02;;
74320;SDS011;62738;45.772;4.804;2023-05-07T10:21:18;2.33;;;1.33;;
74320;SDS011;62738;45.772;4.804;2023-05-07T10:23:55;2.03;;;1.15;;
74320;SDS011;62738;45.772;4.804;2023-05-07T10:26:27;2.47;;;1.02;;
74320;SDS011;62738;45.772;4.804;2023-05-07T10:28:59;2.75;;;1.25;;
74320;SDS011;62738;45.772;4.804;2023-05-07T10:31:50;1.80;;;1.13;;
74320;SDS011;62738;45.772;4.804;2023-05-07T10:34:20;2.35;;;1.20;;
74320;SDS011;62738;45.772;4.804;2023-05-07T10:36:50;1.75;;;1.00;;
74320;SDS011;62738;45.772;4.804;2023-05-07T10:39:18;2.47;;;1.20;;
74320;SDS011;62738;45.772;4.804;2023-05-07T10:41:47;2.50;;;1.00;;
74320;SDS011;62738;45.772;4.804;2023-05-07T10:44:30;2.85;;;1.02;;
74320;SDS011;62738;45.772;4.804;2023-05-07T10:47:06;3.83;;;1.02;;
74320;SDS011;62738;45.772;4.804;2023-05-07T10:52:12;2.15;;;1.17;;
74320;SDS011;62738;45.772;4.804;2023-05-07T10:54:42;3.10;;;1.27;;
74320;SDS011;62738;45.772;4.804;2023-05-07T11:00:03;3.70;;;1.40;;
74320;SDS011;62738;45.772;4.804;2023-05-07T11:03:04;2.72;;;1.05;;
74320;SDS011;62738;45.772;4.804;2023-05-07T11:05:33;1.55;;;1.00;;
74320;SDS011;62738;45.772;4.804;2023-05-07T11:08:03;2.22;;;1.10;;
74320;SDS011;62738;45.772;4.804;2023-05-07T11:13:18;2.53;;;1.02;;
74320;SDS011;62738;45.772;4.804;2023-05-07T11:15:46;2.38;;;1.10;;
74320;SDS011;62738;45.772;4.804;2023-05-07T11:18:14;3.58;;;1.20;;
74320;SDS011;62738;45.772;4.804;2023-05-07T11:20:52;2.95;;;1.27;;
74320;SDS011;62738;45.772;4.804;2023-05-07T11:26:03;3.33;;;2.03;;
74320;SDS011;62738;45.772;4.804;2023-05-07T11:28:30;1.98;;;1.40;;
74320;SDS011;62738;45.772;4.804;2023-05-07T11:31:02;1.95;;;1.45;;
74320;SDS011;62738;45.772;4.804;2023-05-07T11:33:30;2.88;;;1.42;;
74320;SDS011;62738;45.772;4.804;2023-05-07T11:35:57;3.05;;;1.20;;
74320;SDS011;62738;45.772;4.804;2023-05-07T11:38:24;3.30;;;1.58;;
74320;SDS011;62738;45.772;4.804;2023-05-07T11:40:52;2.08;;;1.30;;
74320;SDS011;62738;45.772;4.804;2023-05-07T11:43:19;3.33;;;1.20;;
74320;SDS011;62738;45.772;4.804;2023-05-07T11:45:46;6.88;;;1.40;;
74320;SDS011;62738;45.772;4.804;2023-05-07T11:48:13;3.47;;;1.20;;
74320;SDS011;62738;45.772;4.804;2023-05-07T11:50:54;2.13;;;1.20;;
74320;SDS011;62738;45.772;4.804;2023-05-07T11:53:27;4.18;;;1.30;;
74320;SDS011;62738;45.772;4.804;2023-05-07T11:55:55;5.05;;;1.42;;
74320;SDS011;62738;45.772;4.804;2023-05-07T11:58:22;2.97;;;1.60;;
74320;SDS011;62738;45.772;4.804;2023-05-07T12:00:51;3.17;;;0.90;;
74320;SDS011;62738;45.772;4.804;2023-05-07T12:03:19;2.28;;;1.33;;
74320;SDS011;62738;45.772;4.804;2023-05-07T12:05:46;1.77;;;0.90;;
74320;SDS011;62738;45.772;4.804;2023-05-07T12:08:17;1.25;;;0.80;;
74320;SDS011;62738;45.772;4.804;2023-05-07T12:10:45;2.42;;;0.82;;
74320;SDS011;62738;45.772;4.804;2023-05-07T12:13:20;2.75;;;1.10;;
74320;SDS011;62738;45.772;4.804;2023-05-07T12:15:54;2.55;;;1.15;;
74320;SDS011;62738;45.772;4.804;2023-05-07T12:18:22;2.45;;;1.48;;
74320;SDS011;62738;45.772;4.804;2023-05-07T12:20:49;2.10;;;1.27;;
74320;SDS011;62738;45.772;4.804;2023-05-07T12:23:16;1.60;;;1.10;;
74320;SDS011;62738;45.772;4.804;2023-05-07T12:25:43;3.60;;;1.08;;
74320;SDS011;62738;45.772;4.804;2023-05-07T12:28:17;2.40;;;1.10;;
74320;SDS011;62738;45.772;4.804;2023-05-07T12:33:12;1.75;;;1.13;;
74320;SDS011;62738;45.772;4.804;2023-05-07T12:35:43;2.22;;;1.27;;
74320;SDS011;62738;45.772;4.804;2023-05-07T12:38:11;2.80;;;1.15;;
74320;SDS011;62738;45.772;4.804;2023-05-07T12:40:49;2.33;;;1.20;;
74320;SDS011;62738;45.772;4.804;2023-05-07T12:43:26;3.55;;;1.30;;
74320;SDS011;62738;45.772;4.804;2023-05-07T12:45:54;1.65;;;1.20;;
74320;SDS011;62738;45.772;4.804;2023-05-07T12:48:23;1.90;;;0.95;;
74320;SDS011;62738;45.772;4.804;2023-05-07T12:50:50;2.55;;;1.63;;
74320;SDS011;62738;45.772;4.804;2023-05-07T12:53:20;2.10;;;1.05;;
74320;SDS011;62738;45.772;4.804;2023-05-07T12:55:50;1.77;;;0.70;;
74320;SDS011;62738;45.772;4.804;2023-05-07T12:58:19;1.00;;;0.88;;
74320;SDS011;62738;45.772;4.804;2023-05-07T13:00:52;0.90;;;0.70;;
74320;SDS011;62738;45.772;4.804;2023-05-07T13:06:19;1.58;;;0.80;;
74320;SDS011;62738;45.772;4.804;2023-05-07T13:08:45;2.95;;;0.82;;
74320;SDS011;62738;45.772;4.804;2023-05-07T13:11:12;3.90;;;0.80;;
74320;SDS011;62738;45.772;4.804;2023-05-07T13:13:39;0.68;;;0.63;;
74320;SDS011;62738;45.772;4.804;2023-05-07T13:16:07;0.90;;;0.60;;
74320;SDS011;62738;45.772;4.804;2023-05-07T13:18:35;2.40;;;0.80;;
74320;SDS011;62738;45.772;4.804;2023-05-07T13:21:03;1.63;;;0.80;;
74320;SDS011;62738;45.772;4.804;2023-05-07T13:23:29;0.80;;;0.80;;
74320;SDS011;62738;45.772;4.804;2023-05-07T13:25:56;3.08;;;0.90;;
74320;SDS011;62738;45.772;4.804;2023-05-07T13:28:24;1.42;;;0.80;;
74320;SDS011;62738;45.772;4.804;2023-05-07T13:30:51;1.20;;;0.47;;
74320;SDS011;62738;45.772;4.804;2023-05-07T13:33:18;2.67;;;0.85;;
74320;SDS011;62738;45.772;4.804;2023-05-07T13:35:45;2.00;;;0.90;;
74320;SDS011;62738;45.772;4.804;2023-05-07T13:38:12;1.85;;;0.60;;
74320;SDS011;62738;45.772;4.804;2023-05-07T13:40:39;1.10;;;0.70;;
74320;SDS011;62738;45.772;4.804;2023-05-07T13:43:05;3.13;;;0.70;;
74320;SDS011;62738;45.772;4.804;2023-05-07T13:45:32;1.90;;;0.70;;
74320;SDS011;62738;45.772;4.804;2023-05-07T13:47:59;4.32;;;0.90;;
74320;SDS011;62738;45.772;4.804;2023-05-07T13:50:26;1.35;;;0.60;;
74320;SDS011;62738;45.772;4.804;2023-05-07T13:52:56;1.25;;;0.60;;
74320;SDS011;62738;45.772;4.804;2023-05-07T13:55:23;0.57;;;0.50;;
74320;SDS011;62738;45.772;4.804;2023-05-07T13:57:57;1.55;;;0.65;;
74320;SDS011;62738;45.772;4.804;2023-05-07T14:00:25;0.70;;;0.55;;
74320;SDS011;62738;45.772;4.804;2023-05-07T14:02:53;1.25;;;0.55;;
74320;SDS011;62738;45.772;4.804;2023-05-07T14:05:20;0.95;;;0.60;;
74320;SDS011;62738;45.772;4.804;2023-05-07T14:07:47;0.88;;;0.50;;
74320;SDS011;62738;45.772;4.804;2023-05-07T14:10:15;1.25;;;0.40;;
74320;SDS011;62738;45.772;4.804;2023-05-07T14:12:41;0.70;;;0.57;;
74320;SDS011;62738;45.772;4.804;2023-05-07T14:15:08;1.10;;;0.60;;
74320;SDS011;62738;45.772;4.804;2023-05-07T14:17:35;0.93;;;0.60;;
74320;SDS011;62738;45.772;4.804;2023-05-07T14:20:03;0.77;;;0.40;;
74320;SDS011;62738;45.772;4.804;2023-05-07T14:22:30;2.05;;;0.52;;
74320;SDS011;62738;45.772;4.804;2023-05-07T14:24:56;0.60;;;0.50;;
74320;SDS011;62738;45.772;4.804;2023-05-07T14:30:06;0.77;;;0.30;;
74320;SDS011;62738;45.772;4.804;2023-05-07T14:32:33;1.02;;;0.60;;
74320;SDS011;62738;45.772;4.804;2023-05-07T14:35:00;0.63;;;0.30;;
74320;SDS011;62738;45.772;4.804;2023-05-07T14:37:27;2.05;;;0.30;;
74320;SDS011;62738;45.772;4.804;2023-05-07T14:39:54;1.50;;;0.55;;
74320;SDS011;62738;45.772;4.804;2023-05-07T14:42:20;1.30;;;0.50;;
74320;SDS011;62738;45.772;4.804;2023-05-07T14:44:47;1.02;;;0.35;;
74320;SDS011;62738;45.772;4.804;2023-05-07T14:47:14;0.17;;;0.17;;
74320;SDS011;62738;45.772;4.804;2023-05-07T14:49:45;1.30;;;0.50;;
74320;SDS011;62738;45.772;4.804;2023-05-07T14:52:11;0.90;;;0.43;;
74320;SDS011;62738;45.772;4.804;2023-05-07T14:54:38;0.40;;;0.30;;
74320;SDS011;62738;45.772;4.804;2023-05-07T14:57:05;0.63;;;0.40;;
74320;SDS011;62738;45.772;4.804;2023-05-07T14:59:33;0.65;;;0.30;;
74320;SDS011;62738;45.772;4.804;2023-05-07T15:02:00;1.73;;;0.60;;
74320;SDS011;62738;45.772;4.804;2023-05-07T15:06:57;1.55;;;0.38;;
74320;SDS011;62738;45.772;4.804;2023-05-07T15:09:23;0.55;;;0.40;;
74320;SDS011;62738;45.772;4.804;2023-05-07T15:11:50;2.35;;;0.45;;
74320;SDS011;62738;45.772;4.804;2023-05-07T15:14:17;0.85;;;0.40;;
74320;SDS011;62738;45.772;4.804;2023-05-07T15:16:43;0.43;;;0.35;;
74320;SDS011;62738;45.772;4.804;2023-05-07T15:19:11;1.23;;;0.50;;
74320;SDS011;62738;45.772;4.804;2023-05-07T15:21:38;2.58;;;0.80;;
74320;SDS011;62738;45.772;4.804;2023-05-07T15:24:05;1.15;;;0.50;;
74320;SDS011;62738;45.772;4.804;2023-05-07T15:26:32;0.57;;;0.40;;
74320;SDS011;62738;45.772;4.804;2023-05-07T15:28:58;0.60;;;0.30;;
74320;SDS011;62738;45.772;4.804;2023-05-07T15:31:25;0.50;;;0.47;;
74320;SDS011;62738;45.772;4.804;2023-05-07T15:33:52;0.73;;;0.40;;
74320;SDS011;62738;45.772;4.804;2023-05-07T15:36:19;1.40;;;0.30;;
74320;SDS011;62738;45.772;4.804;2023-05-07T15:38:46;2.15;;;0.68;;
74320;SDS011;62738;45.772;4.804;2023-05-07T15:41:13;5.05;;;0.80;;
74320;SDS011;62738;45.772;4.804;2023-05-07T15:43:43;1.17;;;0.73;;